createdAt,value
2023-09-23T00:03:35.110Z,59.95
2023-09-23T00:07:37.325Z,60.53
2023-09-23T00:11:38.742Z,60.64
2023-09-23T00:15:43.628Z,60.13
2023-09-23T00:19:45.470Z,60.37
2023-09-23T00:23:47.814Z,60.30
2023-09-23T00:27:50.100Z,60.25
2023-09-23T00:31:51.517Z,60.60
2023-09-23T00:35:52.931Z,59.77
2023-09-23T00:39:57.895Z,60.01
2023-09-23T00:43:59.316Z,59.78
2023-09-23T00:48:00.940Z,60.00
2023-09-23T00:52:06.708Z,59.96
2023-09-23T00:56:13.340Z,60.41
2023-09-23T01:00:15.122Z,60.21
2023-09-23T01:04:16.836Z,60.51
2023-09-23T01:08:22.037Z,60.85
2023-09-23T01:12:23.433Z,60.90
2023-09-23T01:16:25.469Z,60.94
2023-09-23T01:20:27.005Z,61.18
2023-09-23T01:24:31.312Z,60.73
2023-09-23T01:28:33.688Z,61.18
2023-09-23T01:32:52.920Z,61.15
2023-09-23T01:36:54.464Z,60.91
2023-09-23T01:40:56.092Z,60.41
2023-09-23T01:45:00.945Z,60.22
2023-09-23T01:49:04.209Z,60.44
2023-09-23T01:53:06.112Z,59.97
2023-09-23T01:57:07.889Z,60.43
2023-09-23T02:01:09.238Z,60.58
2023-09-23T02:05:10.715Z,60.78
2023-09-23T02:09:12.347Z,60.52
2023-09-23T02:13:15.910Z,60.73
2023-09-23T02:17:17.767Z,59.98
2023-09-23T02:21:20.293Z,59.89
2023-09-23T02:25:26.432Z,60.05
2023-09-23T02:29:27.913Z,60.57
2023-09-23T02:33:30.666Z,60.44
2023-09-23T02:37:32.066Z,60.29
2023-09-23T02:41:34.144Z,60.09
2023-09-23T02:45:35.712Z,61.01
2023-09-23T02:49:37.160Z,60.54
2023-09-23T02:53:38.609Z,60.11
2023-09-23T02:57:41.199Z,60.42
2023-09-23T03:01:49.640Z,60.87
2023-09-23T03:05:58.587Z,60.74
2023-09-23T03:10:02.276Z,60.90
2023-09-23T03:14:04.354Z,60.31
2023-09-23T03:18:06.523Z,60.94
2023-09-23T03:22:08.925Z,61.15
2023-09-23T03:26:10.894Z,60.44
2023-09-23T03:30:13.680Z,60.89
2023-09-23T03:34:15.625Z,60.50
2023-09-23T03:38:17.189Z,60.68
2023-09-23T03:42:18.588Z,60.46
2023-09-23T03:46:20.305Z,60.56
2023-09-23T03:50:21.674Z,60.26
2023-09-23T03:54:25.065Z,60.19
2023-09-23T03:58:27.516Z,60.78
2023-09-23T04:02:28.969Z,60.58
2023-09-23T04:06:31.234Z,60.93
2023-09-23T04:10:37.527Z,61.28
2023-09-23T04:14:38.918Z,60.92
2023-09-23T04:18:41.911Z,61.48
2023-09-23T04:22:43.912Z,61.50
2023-09-23T04:26:45.414Z,61.14
2023-09-23T04:30:46.893Z,61.95
2023-09-23T04:34:48.253Z,61.47
2023-09-23T04:38:49.682Z,61.71
2023-09-23T04:42:51.082Z,61.64
2023-09-23T04:46:52.469Z,61.38
2023-09-23T04:50:57.168Z,61.37
2023-09-23T04:54:58.737Z,61.57
2023-09-23T04:59:00.292Z,61.83
2023-09-23T05:03:02.096Z,61.67
2023-09-23T05:07:05.021Z,62.08
2023-09-23T05:11:08.079Z,62.25
2023-09-23T05:15:16.002Z,61.85
2023-09-23T05:19:20.628Z,61.47
2023-09-23T05:23:25.088Z,61.70
2023-09-23T05:27:26.466Z,61.19
2023-09-23T05:31:28.069Z,60.94
2023-09-23T05:35:29.401Z,60.88
2023-09-23T05:39:30.742Z,61.62
2023-09-23T05:43:32.145Z,60.43
2023-09-23T05:47:33.777Z,61.02
2023-09-23T05:51:35.288Z,60.38
2023-09-23T05:55:36.700Z,60.86
2023-09-23T05:59:38.055Z,60.79
2023-09-23T06:03:39.663Z,60.12
2023-09-23T06:07:42.319Z,60.56
2023-09-23T06:11:44.189Z,60.48
2023-09-23T06:15:45.627Z,60.40
2023-09-23T06:19:46.996Z,60.72
2023-09-23T06:23:48.735Z,59.89
2023-09-23T06:27:50.399Z,60.34
2023-09-23T06:31:52.425Z,60.16
2023-09-23T06:35:53.891Z,59.59
2023-09-23T06:39:55.196Z,59.90
2023-09-23T06:43:56.633Z,59.26
2023-09-23T06:47:58.381Z,58.85
2023-09-23T06:51:59.773Z,58.96
2023-09-23T06:56:01.164Z,58.06
2023-09-23T07:00:05.855Z,57.45
2023-09-23T07:04:07.508Z,56.34
2023-09-23T07:08:09.151Z,55.55
2023-09-23T07:12:13.675Z,54.18
2023-09-23T07:16:15.450Z,52.08
2023-09-23T07:20:17.063Z,49.14
2023-09-23T07:24:18.494Z,48.13
2023-09-23T07:28:19.827Z,49.95
2023-09-23T07:32:21.299Z,48.58
2023-09-23T07:36:22.709Z,46.70
2023-09-23T07:40:24.037Z,45.40
2023-09-23T07:44:25.436Z,43.29
2023-09-23T07:48:27.542Z,42.94
2023-09-23T07:52:29.206Z,42.29
2023-09-23T07:56:31.511Z,41.79
2023-09-23T08:00:32.910Z,42.74
2023-09-23T08:04:34.336Z,39.34
2023-09-23T08:08:35.733Z,39.67
2023-09-23T08:12:37.228Z,38.94
2023-09-23T08:16:38.673Z,37.53
2023-09-23T08:20:40.826Z,36.98
2023-09-23T08:24:43.653Z,36.84
2023-09-23T08:28:46.285Z,33.43
2023-09-23T08:32:47.745Z,32.47
2023-09-23T08:36:49.220Z,30.96
2023-09-23T08:40:51.589Z,29.62
2023-09-23T08:44:53.618Z,27.40
2023-09-23T08:48:56.355Z,29.03
2023-09-23T08:52:59.340Z,31.89
2023-09-23T08:57:00.803Z,32.68
2023-09-23T09:01:02.520Z,34.94
2023-09-23T09:05:04.436Z,35.75
2023-09-23T09:09:05.817Z,37.40
2023-09-23T09:13:08.425Z,39.52
2023-09-23T09:17:10.595Z,39.83
2023-09-23T09:21:12.013Z,41.28
2023-09-23T09:25:13.441Z,37.62
2023-09-23T09:29:15.030Z,34.12
2023-09-23T09:33:18.318Z,31.93
2023-09-23T09:37:23.122Z,32.29
2023-09-23T09:41:35.466Z,36.48
2023-09-23T09:45:41.554Z,36.55
2023-09-23T09:49:45.706Z,34.89
2023-09-23T09:53:47.196Z,31.08
2023-09-23T09:57:49.147Z,30.34
2023-09-23T10:01:51.717Z,28.51
2023-09-23T10:05:54.557Z,27.00
2023-09-23T10:10:00.039Z,25.24
2023-09-23T10:14:17.635Z,28.01
2023-09-23T10:18:20.762Z,30.08
2023-09-23T10:22:22.405Z,33.89
2023-09-23T10:26:24.584Z,35.98
2023-09-23T10:30:27.358Z,35.23
2023-09-23T10:34:36.880Z,32.52
2023-09-23T10:38:45.966Z,35.08
2023-09-23T10:42:50.622Z,37.44
2023-09-23T10:46:54.278Z,38.17
2023-09-23T10:50:56.175Z,36.79
2023-09-23T10:54:58.668Z,32.62
2023-09-23T10:59:00.129Z,28.58
2023-09-23T11:03:10.974Z,32.55
2023-09-23T11:07:12.540Z,33.61
2023-09-23T11:11:14.163Z,34.77
2023-09-23T11:15:15.614Z,32.83
2023-09-23T11:19:18.542Z,30.06
2023-09-23T11:23:19.942Z,29.69
2023-09-23T11:27:26.583Z,27.95
2023-09-23T11:31:28.043Z,27.31
2023-09-23T11:35:29.535Z,26.82
2023-09-23T11:39:36.409Z,26.93
2023-09-23T11:43:37.806Z,25.97
2023-09-23T11:47:40.181Z,26.44
2023-09-23T11:51:42.541Z,26.41
2023-09-23T11:55:44.108Z,26.58
2023-09-23T11:59:45.552Z,28.14
2023-09-23T12:03:48.116Z,27.47
2023-09-23T12:07:49.512Z,30.28
2023-09-23T12:11:54.103Z,31.20
2023-09-23T12:15:56.043Z,31.08
2023-09-23T12:19:57.588Z,33.01
2023-09-23T12:24:03.352Z,33.53
2023-09-23T12:28:05.205Z,34.24
2023-09-23T12:32:07.313Z,34.98
2023-09-23T12:36:08.683Z,34.14
2023-09-23T12:40:11.120Z,34.35
2023-09-23T12:44:12.583Z,34.81
2023-09-23T12:48:13.955Z,36.38
2023-09-23T12:52:15.354Z,36.10
2023-09-23T12:56:18.603Z,36.13
2023-09-23T13:00:21.961Z,35.93
2023-09-23T13:04:23.275Z,36.21
2023-09-23T13:08:24.900Z,36.67
2023-09-23T13:12:26.942Z,37.05
2023-09-23T13:16:28.339Z,37.65
2023-09-23T13:20:29.742Z,37.06
2023-09-23T13:24:32.477Z,36.75
2023-09-23T13:28:34.361Z,37.40
2023-09-23T13:32:35.870Z,37.02
2023-09-23T13:36:37.293Z,35.96
2023-09-23T13:40:38.642Z,36.21
2023-09-23T13:44:39.995Z,35.76
2023-09-23T13:48:41.414Z,36.43
2023-09-23T13:52:42.852Z,36.38
2023-09-23T13:56:44.207Z,35.70
2023-09-23T14:00:45.676Z,36.14
2023-09-23T14:04:47.190Z,36.53
2023-09-23T14:08:49.186Z,36.00
2023-09-23T14:12:50.882Z,36.04
2023-09-23T14:16:52.365Z,35.95
2023-09-23T14:20:53.811Z,35.23
2023-09-23T14:24:56.391Z,35.50
2023-09-23T14:28:59.030Z,35.18
2023-09-23T14:33:00.555Z,35.47
2023-09-23T14:37:01.961Z,34.48
2023-09-23T14:41:03.438Z,34.51
2023-09-23T14:45:05.531Z,35.52
2023-09-23T14:49:07.336Z,34.90
2023-09-23T14:53:08.728Z,35.78
2023-09-23T14:57:10.262Z,35.91
2023-09-23T15:01:11.648Z,36.11
2023-09-23T15:05:13.579Z,36.18
2023-09-23T15:09:15.195Z,35.66
2023-09-23T15:13:17.212Z,35.82
2023-09-23T15:17:18.565Z,35.92
2023-09-23T15:21:20.001Z,36.00
2023-09-23T15:25:21.343Z,36.41
2023-09-23T15:29:23.728Z,36.41
2023-09-23T15:33:26.442Z,37.05
2023-09-23T15:37:28.254Z,36.29
2023-09-23T15:41:29.623Z,36.00
2023-09-23T15:45:31.030Z,36.58
2023-09-23T15:49:42.773Z,36.41
2023-09-23T15:53:45.734Z,37.49
2023-09-23T15:57:47.146Z,37.46
2023-09-23T16:01:49.644Z,37.24
2023-09-23T16:05:51.110Z,37.44
2023-09-23T16:09:52.454Z,38.19
2023-09-23T16:13:53.813Z,38.20
2023-09-23T16:17:55.300Z,38.21
2023-09-23T16:21:58.442Z,38.29
2023-09-23T16:26:00.564Z,38.37
2023-09-23T16:30:01.966Z,38.54
2023-09-23T16:34:04.182Z,39.12
2023-09-23T16:38:05.545Z,39.08
2023-09-23T16:42:07.613Z,39.79
2023-09-23T16:46:09.948Z,39.29
2023-09-23T16:50:11.514Z,40.08
2023-09-23T16:54:12.867Z,40.93
2023-09-23T16:58:14.277Z,41.33
2023-09-23T17:02:18.520Z,41.18
2023-09-23T17:06:19.907Z,40.55
2023-09-23T17:10:21.422Z,41.20
2023-09-23T17:14:22.856Z,41.37
2023-09-23T17:18:24.763Z,43.86
2023-09-23T17:22:26.105Z,43.87
2023-09-23T17:26:27.569Z,46.09
2023-09-23T17:30:28.932Z,47.62
2023-09-23T17:34:30.384Z,48.49
2023-09-23T17:38:32.492Z,49.50
2023-09-23T17:42:33.954Z,51.01
2023-09-23T17:46:35.913Z,50.66
2023-09-23T17:50:37.399Z,49.53
2023-09-23T17:54:38.981Z,49.87
2023-09-23T17:58:41.018Z,50.49
2023-09-23T18:02:42.506Z,51.15
2023-09-23T18:06:44.568Z,52.39
2023-09-23T18:10:48.361Z,52.32
2023-09-23T18:14:50.345Z,52.25
2023-09-23T18:18:52.788Z,51.99
2023-09-23T18:22:54.538Z,52.10
2023-09-23T18:26:55.955Z,52.02
2023-09-23T18:30:57.334Z,52.22
2023-09-23T18:34:58.719Z,51.68
2023-09-23T18:39:00.092Z,51.55
2023-09-23T18:43:01.662Z,50.98
2023-09-23T18:47:03.501Z,51.05
2023-09-23T18:51:04.854Z,50.50
2023-09-23T18:55:06.891Z,50.73
2023-09-23T18:59:08.489Z,50.47
2023-09-23T19:03:09.992Z,50.47
2023-09-23T19:07:11.415Z,50.67
2023-09-23T19:11:13.865Z,50.84
2023-09-23T19:15:17.085Z,50.26
2023-09-23T19:19:18.847Z,50.16
2023-09-23T19:23:20.560Z,50.36
2023-09-23T19:27:22.064Z,50.00
2023-09-23T19:31:23.592Z,50.07
2023-09-23T19:35:27.170Z,49.74
2023-09-23T19:39:29.948Z,49.67
2023-09-23T19:43:33.048Z,49.56
2023-09-23T19:47:34.989Z,49.67
2023-09-23T19:51:36.653Z,49.49
2023-09-23T19:55:38.017Z,49.12
2023-09-23T19:59:39.421Z,49.57
2023-09-23T20:03:41.104Z,50.36
2023-09-23T20:07:42.540Z,49.91
2023-09-23T20:11:44.977Z,49.79
2023-09-23T20:15:46.446Z,49.75
2023-09-23T20:19:48.695Z,50.68
2023-09-23T20:23:50.288Z,51.17
2023-09-23T20:27:51.983Z,50.89
2023-09-23T20:31:53.381Z,51.17
2023-09-23T20:35:55.452Z,51.22
2023-09-23T20:39:57.083Z,51.18
2023-09-23T20:44:04.038Z,51.45
2023-09-23T20:48:05.874Z,51.14
2023-09-23T20:52:08.536Z,51.63
2023-09-23T20:56:14.040Z,51.83
2023-09-23T21:00:44.336Z,51.44
2023-09-23T21:04:47.012Z,51.32
2023-09-23T21:08:51.439Z,51.55
2023-09-23T21:12:52.895Z,50.92
2023-09-23T21:16:54.297Z,51.24
2023-09-23T21:20:55.816Z,51.59
2023-09-23T21:24:57.194Z,51.55
2023-09-23T21:28:58.633Z,51.68
2023-09-23T21:33:00.123Z,51.70
2023-09-23T21:37:01.447Z,51.37
2023-09-23T21:41:04.177Z,51.16
2023-09-23T21:45:06.133Z,51.35
2023-09-23T21:49:09.125Z,51.00
2023-09-23T21:53:14.571Z,51.64
2023-09-23T21:57:15.982Z,51.69
2023-09-23T22:01:17.360Z,52.02
2023-09-23T22:05:18.787Z,52.41
2023-09-23T22:09:22.218Z,53.06
2023-09-23T22:13:24.288Z,53.49
2023-09-23T22:17:27.771Z,53.23
2023-09-23T22:21:32.533Z,53.01
2023-09-23T22:25:33.859Z,53.09
2023-09-23T22:29:35.426Z,53.90
2023-09-23T22:33:38.166Z,53.42
2023-09-23T22:37:42.599Z,52.94
2023-09-23T22:41:45.395Z,53.25
2023-09-23T22:45:54.191Z,53.19
2023-09-23T22:49:56.350Z,53.55
2023-09-23T22:53:57.960Z,53.78
2023-09-23T22:58:02.922Z,53.31
2023-09-23T23:02:06.586Z,54.00
2023-09-23T23:06:08.919Z,53.42
2023-09-23T23:10:14.564Z,53.72
2023-09-23T23:14:56.651Z,54.07
2023-09-23T23:19:03.773Z,53.78
2023-09-23T23:23:08.166Z,54.04
2023-09-23T23:27:40.987Z,54.29
2023-09-23T23:31:53.095Z,54.70
2023-09-23T23:37:05.467Z,55.25
2023-09-23T23:41:20.588Z,54.77
2023-09-23T23:45:26.223Z,54.63
2023-09-23T23:49:27.986Z,55.20
2023-09-23T23:53:35.527Z,55.15
